sensor_id;sensor_type;location;lat;lon;timestamp;P1;durP1;ratioP1;P2;durP2;ratioP2
34902;SDS011;21114;44.840;0.214;2022-12-13T00:02:12;7.25;;;5.10;;
34902;SDS011;21114;44.840;0.214;2022-12-13T00:04:38;7.50;;;5.00;;
34902;SDS011;21114;44.840;0.214;2022-12-13T00:07:05;4.60;;;4.10;;
34902;SDS011;21114;44.840;0.214;2022-12-13T00:09:31;5.50;;;4.57;;
34902;SDS011;21114;44.840;0.214;2022-12-13T00:11:57;5.22;;;4.72;;
34902;SDS011;21114;44.840;0.214;2022-12-13T00:14:23;5.60;;;4.07;;
34902;SDS011;21114;44.840;0.214;2022-12-13T00:16:49;5.13;;;4.63;;
34902;SDS011;21114;44.840;0.214;2022-12-13T00:19:15;4.75;;;4.10;;
34902;SDS011;21114;44.840;0.214;2022-12-13T00:22:30;6.88;;;4.95;;
34902;SDS011;21114;44.840;0.214;2022-12-13T00:24:56;5.80;;;4.32;;
34902;SDS011;21114;44.840;0.214;2022-12-13T00:27:22;3.90;;;3.60;;
34902;SDS011;21114;44.840;0.214;2022-12-13T00:29:48;6.15;;;4.45;;
34902;SDS011;21114;44.840;0.214;2022-12-13T00:32:15;7.95;;;4.38;;
34902;SDS011;21114;44.840;0.214;2022-12-13T00:34:41;5.95;;;4.80;;
34902;SDS011;21114;44.840;0.214;2022-12-13T00:37:07;7.00;;;5.72;;
34902;SDS011;21114;44.840;0.214;2022-12-13T00:39:33;6.72;;;6.03;;
34902;SDS011;21114;44.840;0.214;2022-12-13T00:41:59;6.40;;;5.25;;
34902;SDS011;21114;44.840;0.214;2022-12-13T00:44:25;6.38;;;5.07;;
34902;SDS011;21114;44.840;0.214;2022-12-13T00:46:51;5.70;;;5.10;;
34902;SDS011;21114;44.840;0.214;2022-12-13T00:49:18;6.80;;;5.22;;
34902;SDS011;21114;44.840;0.214;2022-12-13T00:51:44;6.57;;;5.18;;
34902;SDS011;21114;44.840;0.214;2022-12-13T00:54:13;6.47;;;5.80;;
34902;SDS011;21114;44.840;0.214;2022-12-13T00:56:39;5.15;;;4.65;;
34902;SDS011;21114;44.840;0.214;2022-12-13T00:59:05;8.48;;;6.45;;
34902;SDS011;21114;44.840;0.214;2022-12-13T01:01:33;7.50;;;6.70;;
34902;SDS011;21114;44.840;0.214;2022-12-13T01:04:48;8.25;;;7.25;;
34902;SDS011;21114;44.840;0.214;2022-12-13T01:08:00;8.45;;;7.57;;
34902;SDS011;21114;44.840;0.214;2022-12-13T01:10:26;8.07;;;6.43;;
34902;SDS011;21114;44.840;0.214;2022-12-13T01:12:52;6.80;;;5.60;;
34902;SDS011;21114;44.840;0.214;2022-12-13T01:15:19;10.60;;;8.32;;
34902;SDS011;21114;44.840;0.214;2022-12-13T01:17:45;8.43;;;6.55;;
34902;SDS011;21114;44.840;0.214;2022-12-13T01:20:11;7.47;;;5.90;;
34902;SDS011;21114;44.840;0.214;2022-12-13T01:22:37;6.95;;;6.25;;
34902;SDS011;21114;44.840;0.214;2022-12-13T01:25:03;6.88;;;5.65;;
34902;SDS011;21114;44.840;0.214;2022-12-13T01:27:30;6.45;;;5.20;;
34902;SDS011;21114;44.840;0.214;2022-12-13T01:29:56;7.75;;;6.18;;
34902;SDS011;21114;44.840;0.214;2022-12-13T01:32:22;9.75;;;6.45;;
34902;SDS011;21114;44.840;0.214;2022-12-13T01:34:48;8.23;;;6.60;;
34902;SDS011;21114;44.840;0.214;2022-12-13T01:37:14;8.20;;;6.95;;
34902;SDS011;21114;44.840;0.214;2022-12-13T01:39:41;9.05;;;7.15;;
34902;SDS011;21114;44.840;0.214;2022-12-13T01:42:09;6.63;;;5.88;;
34902;SDS011;21114;44.840;0.214;2022-12-13T01:45:25;9.98;;;8.20;;
34902;SDS011;21114;44.840;0.214;2022-12-13T01:48:41;11.90;;;8.95;;
34902;SDS011;21114;44.840;0.214;2022-12-13T01:51:58;17.77;;;13.60;;
34902;SDS011;21114;44.840;0.214;2022-12-13T01:55:15;18.55;;;12.55;;
34902;SDS011;21114;44.840;0.214;2022-12-13T01:58:01;15.85;;;12.18;;
34902;SDS011;21114;44.840;0.214;2022-12-13T02:00:28;13.48;;;9.80;;
34902;SDS011;21114;44.840;0.214;2022-12-13T02:02:55;12.43;;;10.10;;
34902;SDS011;21114;44.840;0.214;2022-12-13T02:06:19;7.95;;;6.45;;
34902;SDS011;21114;44.840;0.214;2022-12-13T02:09:26;11.73;;;7.60;;
34902;SDS011;21114;44.840;0.214;2022-12-13T02:11:53;11.02;;;8.48;;
34902;SDS011;21114;44.840;0.214;2022-12-13T02:14:19;8.73;;;5.63;;
34902;SDS011;21114;44.840;0.214;2022-12-13T02:28:03;7.20;;;5.97;;
34902;SDS011;21114;44.840;0.214;2022-12-13T02:31:22;8.02;;;6.95;;
34902;SDS011;21114;44.840;0.214;2022-12-13T02:34:39;9.02;;;7.97;;
34902;SDS011;21114;44.840;0.214;2022-12-13T02:38:01;7.97;;;5.90;;
34902;SDS011;21114;44.840;0.214;2022-12-13T02:43:58;4.57;;;3.67;;
34902;SDS011;21114;44.840;0.214;2022-12-13T02:47:16;3.90;;;3.60;;
34902;SDS011;21114;44.840;0.214;2022-12-13T02:50:33;5.13;;;3.70;;
34902;SDS011;21114;44.840;0.214;2022-12-13T02:53:48;5.63;;;3.83;;
34902;SDS011;21114;44.840;0.214;2022-12-13T02:56:14;3.60;;;3.28;;
34902;SDS011;21114;44.840;0.214;2022-12-13T02:58:41;4.03;;;2.88;;
34902;SDS011;21114;44.840;0.214;2022-12-13T03:07:34;5.50;;;3.75;;
34902;SDS011;21114;44.840;0.214;2022-12-13T03:19:07;4.95;;;3.60;;
34902;SDS011;21114;44.840;0.214;2022-12-13T03:21:56;4.53;;;4.13;;
34902;SDS011;21114;44.840;0.214;2022-12-13T03:24:22;5.50;;;3.90;;
34902;SDS011;21114;44.840;0.214;2022-12-13T03:26:48;6.40;;;3.53;;
34902;SDS011;21114;44.840;0.214;2022-12-13T03:30:03;4.95;;;3.25;;
34902;SDS011;21114;44.840;0.214;2022-12-13T03:32:30;3.92;;;3.20;;
34902;SDS011;21114;44.840;0.214;2022-12-13T03:34:56;5.72;;;3.88;;
34902;SDS011;21114;44.840;0.214;2022-12-13T03:37:22;3.75;;;3.08;;
34902;SDS011;21114;44.840;0.214;2022-12-13T03:39:48;4.32;;;3.63;;
34902;SDS011;21114;44.840;0.214;2022-12-13T03:42:14;4.13;;;3.53;;
34902;SDS011;21114;44.840;0.214;2022-12-13T03:44:41;7.70;;;3.15;;
34902;SDS011;21114;44.840;0.214;2022-12-13T03:47:07;3.92;;;2.80;;
34902;SDS011;21114;44.840;0.214;2022-12-13T03:49:34;3.47;;;2.95;;
34902;SDS011;21114;44.840;0.214;2022-12-13T03:52:00;7.78;;;3.50;;
34902;SDS011;21114;44.840;0.214;2022-12-13T03:55:17;4.25;;;2.83;;
34902;SDS011;21114;44.840;0.214;2022-12-13T03:58:32;2.42;;;1.90;;
34902;SDS011;21114;44.840;0.214;2022-12-13T04:01:47;2.25;;;2.05;;
34902;SDS011;21114;44.840;0.214;2022-12-13T04:04:13;1.65;;;1.33;;
34902;SDS011;21114;44.840;0.214;2022-12-13T04:06:39;1.75;;;1.42;;
34902;SDS011;21114;44.840;0.214;2022-12-13T04:09:05;1.55;;;1.05;;
34902;SDS011;21114;44.840;0.214;2022-12-13T04:11:31;3.15;;;1.92;;
34902;SDS011;21114;44.840;0.214;2022-12-13T04:14:25;1.60;;;1.50;;
34902;SDS011;21114;44.840;0.214;2022-12-13T04:16:51;2.35;;;1.77;;
34902;SDS011;21114;44.840;0.214;2022-12-13T04:19:17;1.55;;;1.00;;
34902;SDS011;21114;44.840;0.214;2022-12-13T04:21:43;1.85;;;1.30;;
34902;SDS011;21114;44.840;0.214;2022-12-13T04:24:09;2.22;;;2.05;;
34902;SDS011;21114;44.840;0.214;2022-12-13T04:26:35;22.65;;;3.78;;
34902;SDS011;21114;44.840;0.214;2022-12-13T04:29:01;2.80;;;2.40;;
34902;SDS011;21114;44.840;0.214;2022-12-13T04:31:27;1.58;;;1.48;;
34902;SDS011;21114;44.840;0.214;2022-12-13T04:33:53;1.65;;;1.30;;
34902;SDS011;21114;44.840;0.214;2022-12-13T04:36:19;1.75;;;1.60;;
34902;SDS011;21114;44.840;0.214;2022-12-13T04:38:46;1.63;;;1.48;;
34902;SDS011;21114;44.840;0.214;2022-12-13T04:41:13;1.55;;;1.20;;
34902;SDS011;21114;44.840;0.214;2022-12-13T04:44:28;2.03;;;1.83;;
34902;SDS011;21114;44.840;0.214;2022-12-13T04:46:55;1.35;;;1.25;;
34902;SDS011;21114;44.840;0.214;2022-12-13T04:49:21;2.15;;;1.60;;
34902;SDS011;21114;44.840;0.214;2022-12-13T04:51:47;3.95;;;1.50;;
34902;SDS011;21114;44.840;0.214;2022-12-13T04:54:13;1.88;;;1.50;;
34902;SDS011;21114;44.840;0.214;2022-12-13T04:56:39;5.63;;;2.28;;
34902;SDS011;21114;44.840;0.214;2022-12-13T04:59:05;3.45;;;2.22;;
34902;SDS011;21114;44.840;0.214;2022-12-13T05:01:31;1.98;;;1.77;;
34902;SDS011;21114;44.840;0.214;2022-12-13T05:04:47;2.88;;;2.35;;
34902;SDS011;21114;44.840;0.214;2022-12-13T05:07:13;2.67;;;1.80;;
34902;SDS011;21114;44.840;0.214;2022-12-13T05:09:39;2.03;;;1.83;;
34902;SDS011;21114;44.840;0.214;2022-12-13T05:12:05;3.13;;;2.25;;
34902;SDS011;21114;44.840;0.214;2022-12-13T05:14:31;2.20;;;2.00;;
34902;SDS011;21114;44.840;0.214;2022-12-13T05:16:58;2.30;;;2.08;;
34902;SDS011;21114;44.840;0.214;2022-12-13T05:20:06;2.17;;;1.70;;
34902;SDS011;21114;44.840;0.214;2022-12-13T05:22:32;1.95;;;1.60;;
34902;SDS011;21114;44.840;0.214;2022-12-13T05:24:58;2.83;;;2.03;;
34902;SDS011;21114;44.840;0.214;2022-12-13T05:27:24;4.47;;;2.70;;
34902;SDS011;21114;44.840;0.214;2022-12-13T05:29:50;3.92;;;3.53;;
34902;SDS011;21114;44.840;0.214;2022-12-13T05:32:16;2.83;;;2.25;;
34902;SDS011;21114;44.840;0.214;2022-12-13T05:34:42;3.50;;;3.17;;
34902;SDS011;21114;44.840;0.214;2022-12-13T05:37:08;2.78;;;2.50;;
34902;SDS011;21114;44.840;0.214;2022-12-13T05:39:34;5.30;;;2.90;;
34902;SDS011;21114;44.840;0.214;2022-12-13T05:42:01;2.70;;;2.35;;
34902;SDS011;21114;44.840;0.214;2022-12-13T05:44:27;4.50;;;2.80;;
34902;SDS011;21114;44.840;0.214;2022-12-13T05:46:53;3.20;;;2.90;;
34902;SDS011;21114;44.840;0.214;2022-12-13T05:49:19;3.60;;;2.47;;
34902;SDS011;21114;44.840;0.214;2022-12-13T05:51:45;3.95;;;2.22;;
34902;SDS011;21114;44.840;0.214;2022-12-13T05:54:11;2.78;;;2.42;;
34902;SDS011;21114;44.840;0.214;2022-12-13T05:56:37;2.55;;;2.35;;
34902;SDS011;21114;44.840;0.214;2022-12-13T05:59:03;4.00;;;3.10;;
34902;SDS011;21114;44.840;0.214;2022-12-13T06:01:29;4.30;;;2.88;;
34902;SDS011;21114;44.840;0.214;2022-12-13T06:03:55;3.60;;;3.08;;
34902;SDS011;21114;44.840;0.214;2022-12-13T06:06:21;3.90;;;2.97;;
34902;SDS011;21114;44.840;0.214;2022-12-13T06:08:47;3.88;;;2.40;;
34902;SDS011;21114;44.840;0.214;2022-12-13T06:11:13;3.72;;;2.90;;
34902;SDS011;21114;44.840;0.214;2022-12-13T06:13:40;4.15;;;2.72;;
34902;SDS011;21114;44.840;0.214;2022-12-13T06:16:55;3.08;;;2.70;;
34902;SDS011;21114;44.840;0.214;2022-12-13T06:19:21;3.05;;;2.70;;
34902;SDS011;21114;44.840;0.214;2022-12-13T06:22:36;4.65;;;3.20;;
34902;SDS011;21114;44.840;0.214;2022-12-13T06:25:02;5.93;;;3.00;;
34902;SDS011;21114;44.840;0.214;2022-12-13T06:27:29;3.33;;;3.00;;
34902;SDS011;21114;44.840;0.214;2022-12-13T06:29:55;4.38;;;2.83;;
34902;SDS011;21114;44.840;0.214;2022-12-13T06:32:21;3.50;;;2.75;;
34902;SDS011;21114;44.840;0.214;2022-12-13T06:34:47;3.53;;;3.03;;
34902;SDS011;21114;44.840;0.214;2022-12-13T06:37:13;4.57;;;4.03;;
34902;SDS011;21114;44.840;0.214;2022-12-13T06:39:40;9.82;;;6.28;;
34902;SDS011;21114;44.840;0.214;2022-12-13T06:42:06;12.10;;;5.90;;
34902;SDS011;21114;44.840;0.214;2022-12-13T06:45:01;5.50;;;4.72;;
34902;SDS011;21114;44.840;0.214;2022-12-13T06:47:27;5.28;;;4.20;;
34902;SDS011;21114;44.840;0.214;2022-12-13T06:49:53;27.10;;;12.60;;
34902;SDS011;21114;44.840;0.214;2022-12-13T06:52:19;15.80;;;9.20;;
34902;SDS011;21114;44.840;0.214;2022-12-13T06:54:45;12.38;;;8.93;;
34902;SDS011;21114;44.840;0.214;2022-12-13T06:57:11;3.28;;;2.90;;
34902;SDS011;21114;44.840;0.214;2022-12-13T06:59:37;4.47;;;3.15;;
34902;SDS011;21114;44.840;0.214;2022-12-13T07:02:04;5.13;;;3.63;;
34902;SDS011;21114;44.840;0.214;2022-12-13T07:04:30;3.90;;;2.85;;
34902;SDS011;21114;44.840;0.214;2022-12-13T07:07:45;3.78;;;2.65;;
34902;SDS011;21114;44.840;0.214;2022-12-13T07:10:11;5.68;;;3.80;;
34902;SDS011;21114;44.840;0.214;2022-12-13T07:12:37;3.90;;;3.47;;
34902;SDS011;21114;44.840;0.214;2022-12-13T07:15:04;4.15;;;3.75;;
34902;SDS011;21114;44.840;0.214;2022-12-13T07:17:30;4.43;;;3.78;;
34902;SDS011;21114;44.840;0.214;2022-12-13T07:19:56;3.35;;;3.00;;
34902;SDS011;21114;44.840;0.214;2022-12-13T07:22:22;4.75;;;3.45;;
34902;SDS011;21114;44.840;0.214;2022-12-13T07:24:48;3.72;;;3.42;;
34902;SDS011;21114;44.840;0.214;2022-12-13T07:27:14;4.57;;;3.88;;
34902;SDS011;21114;44.840;0.214;2022-12-13T07:29:40;4.65;;;4.05;;
34902;SDS011;21114;44.840;0.214;2022-12-13T07:32:06;5.03;;;4.45;;
34902;SDS011;21114;44.840;0.214;2022-12-13T07:34:32;4.55;;;4.15;;
34902;SDS011;21114;44.840;0.214;2022-12-13T07:36:58;6.85;;;4.68;;
34902;SDS011;21114;44.840;0.214;2022-12-13T07:39:25;6.28;;;4.80;;
34902;SDS011;21114;44.840;0.214;2022-12-13T07:41:52;8.77;;;4.40;;
34902;SDS011;21114;44.840;0.214;2022-12-13T07:45:07;7.18;;;4.15;;
34902;SDS011;21114;44.840;0.214;2022-12-13T07:47:33;6.88;;;4.82;;
34902;SDS011;21114;44.840;0.214;2022-12-13T07:49:59;6.00;;;4.28;;
34902;SDS011;21114;44.840;0.214;2022-12-13T07:52:26;6.93;;;4.63;;
34902;SDS011;21114;44.840;0.214;2022-12-13T07:54:52;4.47;;;4.07;;
34902;SDS011;21114;44.840;0.214;2022-12-13T07:57:18;5.47;;;4.43;;
34902;SDS011;21114;44.840;0.214;2022-12-13T07:59:44;9.20;;;4.88;;
34902;SDS011;21114;44.840;0.214;2022-12-13T08:02:11;4.75;;;3.30;;
34902;SDS011;21114;44.840;0.214;2022-12-13T08:05:26;5.25;;;4.25;;
34902;SDS011;21114;44.840;0.214;2022-12-13T08:07:52;5.72;;;4.72;;
34902;SDS011;21114;44.840;0.214;2022-12-13T08:10:19;6.40;;;4.53;;
34902;SDS011;21114;44.840;0.214;2022-12-13T08:12:45;6.20;;;4.82;;
34902;SDS011;21114;44.840;0.214;2022-12-13T08:15:11;6.65;;;4.65;;
34902;SDS011;21114;44.840;0.214;2022-12-13T08:17:37;7.32;;;5.40;;
34902;SDS011;21114;44.840;0.214;2022-12-13T08:20:03;9.57;;;7.43;;
34902;SDS011;21114;44.840;0.214;2022-12-13T08:23:04;7.95;;;5.78;;
34902;SDS011;21114;44.840;0.214;2022-12-13T08:25:30;6.65;;;4.65;;
34902;SDS011;21114;44.840;0.214;2022-12-13T08:27:56;6.22;;;5.32;;
34902;SDS011;21114;44.840;0.214;2022-12-13T08:30:22;8.05;;;5.45;;
34902;SDS011;21114;44.840;0.214;2022-12-13T08:32:48;9.48;;;5.88;;
34902;SDS011;21114;44.840;0.214;2022-12-13T08:35:15;8.65;;;5.90;;
34902;SDS011;21114;44.840;0.214;2022-12-13T08:37:41;6.80;;;5.38;;
34902;SDS011;21114;44.840;0.214;2022-12-13T08:40:07;5.65;;;5.05;;
34902;SDS011;21114;44.840;0.214;2022-12-13T08:42:33;10.27;;;5.97;;
34902;SDS011;21114;44.840;0.214;2022-12-13T08:44:59;8.90;;;8.00;;
34902;SDS011;21114;44.840;0.214;2022-12-13T08:47:26;7.85;;;6.35;;
34902;SDS011;21114;44.840;0.214;2022-12-13T08:49:53;6.55;;;5.60;;
34902;SDS011;21114;44.840;0.214;2022-12-13T08:53:08;6.55;;;5.95;;
34902;SDS011;21114;44.840;0.214;2022-12-13T08:55:35;7.03;;;5.95;;
34902;SDS011;21114;44.840;0.214;2022-12-13T08:58:49;8.38;;;7.57;;
34902;SDS011;21114;44.840;0.214;2022-12-13T09:01:15;8.60;;;7.70;;
34902;SDS011;21114;44.840;0.214;2022-12-13T09:03:42;7.95;;;6.60;;
34902;SDS011;21114;44.840;0.214;2022-12-13T09:06:09;9.25;;;7.20;;
34902;SDS011;21114;44.840;0.214;2022-12-13T09:09:26;7.18;;;5.60;;
34902;SDS011;21114;44.840;0.214;2022-12-13T09:12:41;8.70;;;6.85;;
34902;SDS011;21114;44.840;0.214;2022-12-13T09:15:07;10.88;;;7.55;;
34902;SDS011;21114;44.840;0.214;2022-12-13T09:17:33;8.02;;;5.93;;
34902;SDS011;21114;44.840;0.214;2022-12-13T09:19:59;8.20;;;5.88;;
34902;SDS011;21114;44.840;0.214;2022-12-13T09:22:26;5.93;;;4.80;;
34902;SDS011;21114;44.840;0.214;2022-12-13T09:24:53;7.38;;;6.38;;
34902;SDS011;21114;44.840;0.214;2022-12-13T09:27:20;9.13;;;7.20;;
34902;SDS011;21114;44.840;0.214;2022-12-13T09:29:46;7.07;;;5.65;;
34902;SDS011;21114;44.840;0.214;2022-12-13T09:32:12;5.07;;;4.15;;
34902;SDS011;21114;44.840;0.214;2022-12-13T09:34:38;2.30;;;1.83;;
34902;SDS011;21114;44.840;0.214;2022-12-13T09:37:04;4.47;;;2.78;;
34902;SDS011;21114;44.840;0.214;2022-12-13T09:39:30;3.00;;;2.40;;
34902;SDS011;21114;44.840;0.214;2022-12-13T09:41:57;2.30;;;1.92;;
34902;SDS011;21114;44.840;0.214;2022-12-13T09:45:04;3.03;;;2.20;;
34902;SDS011;21114;44.840;0.214;2022-12-13T09:48:14;2.70;;;2.40;;
34902;SDS011;21114;44.840;0.214;2022-12-13T09:51:30;2.33;;;2.05;;
34902;SDS011;21114;44.840;0.214;2022-12-13T09:54:46;2.45;;;2.13;;
34902;SDS011;21114;44.840;0.214;2022-12-13T09:58:03;2.47;;;2.17;;
34902;SDS011;21114;44.840;0.214;2022-12-13T10:01:20;2.60;;;2.05;;
34902;SDS011;21114;44.840;0.214;2022-12-13T10:03:47;3.20;;;2.90;;
34902;SDS011;21114;44.840;0.214;2022-12-13T10:07:04;2.92;;;2.63;;
34902;SDS011;21114;44.840;0.214;2022-12-13T10:10:19;2.50;;;1.45;;
34902;SDS011;21114;44.840;0.214;2022-12-13T10:12:47;2.33;;;2.13;;
34902;SDS011;21114;44.840;0.214;2022-12-13T10:16:05;1.15;;;1.05;;
34902;SDS011;21114;44.840;0.214;2022-12-13T10:21:58;1.90;;;1.65;;
34902;SDS011;21114;44.840;0.214;2022-12-13T10:25:03;1.55;;;1.42;;
34902;SDS011;21114;44.840;0.214;2022-12-13T10:28:08;4.60;;;2.38;;
34902;SDS011;21114;44.840;0.214;2022-12-13T10:30:42;2.03;;;1.65;;
34902;SDS011;21114;44.840;0.214;2022-12-13T10:33:57;2.85;;;2.50;;
34902;SDS011;21114;44.840;0.214;2022-12-13T10:39:18;3.30;;;2.47;;
34902;SDS011;21114;44.840;0.214;2022-12-13T10:45:41;3.50;;;2.30;;
34902;SDS011;21114;44.840;0.214;2022-12-13T10:48:56;3.67;;;2.60;;
34902;SDS011;21114;44.840;0.214;2022-12-13T10:51:22;4.78;;;3.60;;
34902;SDS011;21114;44.840;0.214;2022-12-13T11:08:11;3.28;;;2.80;;
34902;SDS011;21114;44.840;0.214;2022-12-13T11:11:26;2.00;;;1.77;;
34902;SDS011;21114;44.840;0.214;2022-12-13T11:17:37;2.00;;;1.80;;
34902;SDS011;21114;44.840;0.214;2022-12-13T11:20:59;2.60;;;2.38;;
34902;SDS011;21114;44.840;0.214;2022-12-13T11:24:23;2.67;;;2.22;;
34902;SDS011;21114;44.840;0.214;2022-12-13T11:30:37;2.95;;;2.47;;
34902;SDS011;21114;44.840;0.214;2022-12-13T11:39:29;5.50;;;3.83;;
34902;SDS011;21114;44.840;0.214;2022-12-13T11:42:54;4.57;;;4.00;;
34902;SDS011;21114;44.840;0.214;2022-12-13T11:49:01;5.18;;;3.88;;
34902;SDS011;21114;44.840;0.214;2022-12-13T11:54:58;5.63;;;4.78;;
34902;SDS011;21114;44.840;0.214;2022-12-13T11:58:16;5.93;;;4.50;;
34902;SDS011;21114;44.840;0.214;2022-12-13T12:06:54;17.45;;;12.98;;
34902;SDS011;21114;44.840;0.214;2022-12-13T12:12:54;32.72;;;21.50;;
34902;SDS011;21114;44.840;0.214;2022-12-13T12:18:50;35.10;;;22.15;;
34902;SDS011;21114;44.840;0.214;2022-12-13T12:30:22;24.35;;;17.27;;
34902;SDS011;21114;44.840;0.214;2022-12-13T12:46:45;15.60;;;11.95;;
34902;SDS011;21114;44.840;0.214;2022-12-13T12:50:07;19.27;;;12.05;;
34902;SDS011;21114;44.840;0.214;2022-12-13T13:01:50;8.18;;;5.57;;
34902;SDS011;21114;44.840;0.214;2022-12-13T13:11:04;5.88;;;5.28;;
34902;SDS011;21114;44.840;0.214;2022-12-13T13:22:52;7.82;;;6.22;;
34902;SDS011;21114;44.840;0.214;2022-12-13T13:26:06;6.75;;;5.22;;
34902;SDS011;21114;44.840;0.214;2022-12-13T13:28:32;6.63;;;5.47;;
34902;SDS011;21114;44.840;0.214;2022-12-13T13:31:00;5.72;;;4.07;;
34902;SDS011;21114;44.840;0.214;2022-12-13T13:34:20;5.90;;;5.25;;
34902;SDS011;21114;44.840;0.214;2022-12-13T13:40:01;7.53;;;5.57;;
34902;SDS011;21114;44.840;0.214;2022-12-13T13:43:26;23.23;;;12.82;;
34902;SDS011;21114;44.840;0.214;2022-12-13T13:49:35;5.90;;;5.32;;
34902;SDS011;21114;44.840;0.214;2022-12-13T14:01:07;6.18;;;4.65;;
34902;SDS011;21114;44.840;0.214;2022-12-13T14:04:32;5.50;;;4.50;;
34902;SDS011;21114;44.840;0.214;2022-12-13T14:27:32;6.40;;;5.30;;
34902;SDS011;21114;44.840;0.214;2022-12-13T14:30:48;5.93;;;4.65;;
34902;SDS011;21114;44.840;0.214;2022-12-13T14:33:22;5.80;;;4.72;;
34902;SDS011;21114;44.840;0.214;2022-12-13T14:36:37;6.72;;;4.40;;
34902;SDS011;21114;44.840;0.214;2022-12-13T14:41:44;15.57;;;9.18;;
34902;SDS011;21114;44.840;0.214;2022-12-13T14:47:51;6.72;;;5.32;;
34902;SDS011;21114;44.840;0.214;2022-12-13T14:51:15;6.10;;;5.50;;
34902;SDS011;21114;44.840;0.214;2022-12-13T14:54:24;11.68;;;5.47;;
34902;SDS011;21114;44.840;0.214;2022-12-13T14:57:39;6.50;;;5.88;;
34902;SDS011;21114;44.840;0.214;2022-12-13T15:01:05;6.68;;;5.68;;
34902;SDS011;21114;44.840;0.214;2022-12-13T15:07:22;11.60;;;9.50;;
34902;SDS011;21114;44.840;0.214;2022-12-13T15:10:38;7.50;;;6.60;;
34902;SDS011;21114;44.840;0.214;2022-12-13T15:13:53;6.57;;;5.88;;
34902;SDS011;21114;44.840;0.214;2022-12-13T15:16:21;8.45;;;6.85;;
34902;SDS011;21114;44.840;0.214;2022-12-13T15:19:25;7.32;;;6.53;;
34902;SDS011;21114;44.840;0.214;2022-12-13T15:22:20;7.28;;;6.10;;
34902;SDS011;21114;44.840;0.214;2022-12-13T15:24:46;7.68;;;6.57;;
34902;SDS011;21114;44.840;0.214;2022-12-13T15:28:02;11.60;;;8.00;;
34902;SDS011;21114;44.840;0.214;2022-12-13T15:31:17;8.70;;;6.70;;
34902;SDS011;21114;44.840;0.214;2022-12-13T15:33:43;11.75;;;10.50;;
34902;SDS011;21114;44.840;0.214;2022-12-13T15:36:11;11.18;;;8.80;;
34902;SDS011;21114;44.840;0.214;2022-12-13T15:39:27;12.05;;;8.15;;
34902;SDS011;21114;44.840;0.214;2022-12-13T15:41:55;12.25;;;9.95;;
34902;SDS011;21114;44.840;0.214;2022-12-13T15:44:28;10.45;;;8.57;;
34902;SDS011;21114;44.840;0.214;2022-12-13T15:47:45;12.75;;;9.27;;
34902;SDS011;21114;44.840;0.214;2022-12-13T15:53:03;10.00;;;7.68;;
34902;SDS011;21114;44.840;0.214;2022-12-13T15:56:25;9.75;;;7.30;;
34902;SDS011;21114;44.840;0.214;2022-12-13T15:59:34;7.35;;;6.25;;
34902;SDS011;21114;44.840;0.214;2022-12-13T16:02:24;9.80;;;8.73;;
34902;SDS011;21114;44.840;0.214;2022-12-13T16:04:52;22.08;;;19.70;;
34902;SDS011;21114;44.840;0.214;2022-12-13T16:07:20;13.02;;;10.35;;
34902;SDS011;21114;44.840;0.214;2022-12-13T16:10:31;10.50;;;9.20;;
34902;SDS011;21114;44.840;0.214;2022-12-13T16:13:24;10.32;;;8.93;;
34902;SDS011;21114;44.840;0.214;2022-12-13T16:16:39;8.40;;;6.32;;
34902;SDS011;21114;44.840;0.214;2022-12-13T16:19:11;8.40;;;6.50;;
34902;SDS011;21114;44.840;0.214;2022-12-13T16:22:26;10.65;;;7.70;;
34902;SDS011;21114;44.840;0.214;2022-12-13T16:24:52;10.88;;;8.15;;
34902;SDS011;21114;44.840;0.214;2022-12-13T16:27:20;10.40;;;7.10;;
34902;SDS011;21114;44.840;0.214;2022-12-13T16:29:46;14.60;;;8.07;;
34902;SDS011;21114;44.840;0.214;2022-12-13T16:32:12;13.25;;;10.32;;
34902;SDS011;21114;44.840;0.214;2022-12-13T16:34:38;10.90;;;9.27;;
34902;SDS011;21114;44.840;0.214;2022-12-13T16:37:05;10.57;;;7.95;;
34902;SDS011;21114;44.840;0.214;2022-12-13T16:39:32;9.27;;;7.45;;
34902;SDS011;21114;44.840;0.214;2022-12-13T16:41:58;9.80;;;6.93;;
34902;SDS011;21114;44.840;0.214;2022-12-13T16:47:07;12.80;;;8.93;;
34902;SDS011;21114;44.840;0.214;2022-12-13T16:50:22;10.85;;;8.05;;
34902;SDS011;21114;44.840;0.214;2022-12-13T16:52:48;10.00;;;8.18;;
34902;SDS011;21114;44.840;0.214;2022-12-13T16:55:15;15.60;;;8.43;;
34902;SDS011;21114;44.840;0.214;2022-12-13T16:57:41;15.40;;;10.27;;
34902;SDS011;21114;44.840;0.214;2022-12-13T17:00:09;10.90;;;9.00;;
34902;SDS011;21114;44.840;0.214;2022-12-13T17:03:25;13.68;;;8.90;;
34902;SDS011;21114;44.840;0.214;2022-12-13T17:05:52;12.35;;;9.95;;
34902;SDS011;21114;44.840;0.214;2022-12-13T17:08:18;13.63;;;9.55;;
34902;SDS011;21114;44.840;0.214;2022-12-13T17:10:44;14.48;;;9.13;;
34902;SDS011;21114;44.840;0.214;2022-12-13T17:13:10;17.95;;;10.45;;
34902;SDS011;21114;44.840;0.214;2022-12-13T17:15:36;17.63;;;12.30;;
34902;SDS011;21114;44.840;0.214;2022-12-13T17:18:03;19.67;;;11.32;;
34902;SDS011;21114;44.840;0.214;2022-12-13T17:20:29;20.00;;;12.93;;
34902;SDS011;21114;44.840;0.214;2022-12-13T17:22:55;15.05;;;10.95;;
34902;SDS011;21114;44.840;0.214;2022-12-13T17:25:22;17.20;;;11.50;;
34902;SDS011;21114;44.840;0.214;2022-12-13T17:27:48;15.88;;;11.45;;
34902;SDS011;21114;44.840;0.214;2022-12-13T17:30:14;20.60;;;13.27;;
34902;SDS011;21114;44.840;0.214;2022-12-13T17:33:29;14.90;;;10.60;;
34902;SDS011;21114;44.840;0.214;2022-12-13T17:35:55;18.88;;;13.00;;
34902;SDS011;21114;44.840;0.214;2022-12-13T17:38:21;17.75;;;11.15;;
34902;SDS011;21114;44.840;0.214;2022-12-13T17:40:51;15.65;;;12.60;;
34902;SDS011;21114;44.840;0.214;2022-12-13T17:44:04;13.13;;;10.70;;
34902;SDS011;21114;44.840;0.214;2022-12-13T17:47:19;23.13;;;15.88;;
34902;SDS011;21114;44.840;0.214;2022-12-13T17:49:45;19.17;;;15.80;;
34902;SDS011;21114;44.840;0.214;2022-12-13T17:52:11;17.77;;;15.95;;
34902;SDS011;21114;44.840;0.214;2022-12-13T17:54:37;16.85;;;12.30;;
34902;SDS011;21114;44.840;0.214;2022-12-13T17:57:03;15.95;;;11.48;;
34902;SDS011;21114;44.840;0.214;2022-12-13T17:59:30;14.90;;;10.23;;
34902;SDS011;21114;44.840;0.214;2022-12-13T18:01:56;13.23;;;11.82;;
34902;SDS011;21114;44.840;0.214;2022-12-13T18:04:23;15.38;;;12.55;;
34902;SDS011;21114;44.840;0.214;2022-12-13T18:06:49;16.40;;;13.45;;
34902;SDS011;21114;44.840;0.214;2022-12-13T18:10:04;18.33;;;12.73;;
34902;SDS011;21114;44.840;0.214;2022-12-13T18:12:30;16.63;;;13.02;;
34902;SDS011;21114;44.840;0.214;2022-12-13T18:14:57;19.17;;;11.95;;
34902;SDS011;21114;44.840;0.214;2022-12-13T18:17:23;17.27;;;11.50;;
34902;SDS011;21114;44.840;0.214;2022-12-13T18:19:50;14.93;;;10.57;;
34902;SDS011;21114;44.840;0.214;2022-12-13T18:22:16;16.55;;;11.50;;
34902;SDS011;21114;44.840;0.214;2022-12-13T18:24:42;15.95;;;11.90;;
34902;SDS011;21114;44.840;0.214;2022-12-13T18:27:08;16.27;;;13.77;;
34902;SDS011;21114;44.840;0.214;2022-12-13T18:29:34;14.85;;;11.25;;
34902;SDS011;21114;44.840;0.214;2022-12-13T18:32:05;18.77;;;12.30;;
34902;SDS011;21114;44.840;0.214;2022-12-13T18:34:32;12.98;;;10.85;;
34902;SDS011;21114;44.840;0.214;2022-12-13T18:36:58;12.32;;;10.60;;
34902;SDS011;21114;44.840;0.214;2022-12-13T18:39:24;21.98;;;15.32;;
34902;SDS011;21114;44.840;0.214;2022-12-13T18:41:50;14.88;;;11.07;;
34902;SDS011;21114;44.840;0.214;2022-12-13T18:44:17;10.75;;;9.73;;
34902;SDS011;21114;44.840;0.214;2022-12-13T18:46:43;15.27;;;11.00;;
34902;SDS011;21114;44.840;0.214;2022-12-13T18:49:10;16.70;;;12.50;;
34902;SDS011;21114;44.840;0.214;2022-12-13T18:51:37;12.02;;;10.55;;
34902;SDS011;21114;44.840;0.214;2022-12-13T18:54:03;15.73;;;10.75;;
34902;SDS011;21114;44.840;0.214;2022-12-13T18:56:29;15.27;;;12.23;;